Time;durP1;ratioP1;P1;durP2;ratioP2;P2;SDS_P1;SDS_P2;PMS_P1;PMS_P2;Temp;Humidity;BMP_temperature;BMP_pressure;BME280_temperature;BME280_humidity;BME280_pressure;Samples;Min_cycle;Max_cycle;Signal;HPM_P1;HPM_P2
2024/02/14 00:01:09;;;;;;;1.83;0.77;;;11.80;99.90;;;;;;5049702;28;20331;-76
2024/02/14 00:03:35;;;;;;;2.55;0.80;;;11.80;99.90;;;;;;5050641;28;20208;-76
2024/02/14 00:06:01;;;;;;;2.57;0.80;;;11.80;99.90;;;;;;5050424;28;20257;-76
2024/02/14 00:08:26;;;;;;;1.50;0.68;;;11.80;99.90;;;;;;5052054;28;20586;-76
2024/02/14 00:10:52;;;;;;;1.80;0.50;;;11.80;99.90;;;;;;5070550;28;20559;-76
2024/02/14 00:13:18;;;;;;;1.73;0.70;;;11.90;99.90;;;;;;5052423;28;20190;-76
2024/02/14 00:15:45;;;;;;;2.47;0.70;;;11.90;99.90;;;;;;5061930;28;20203;-75
2024/02/14 00:18:11;;;;;;;1.40;0.60;;;11.90;99.90;;;;;;5052611;28;20567;-76
2024/02/14 00:20:39;;;;;;;1.65;0.70;;;11.90;99.90;;;;;;5070001;28;20691;-76
2024/02/14 00:23:04;;;;;;;3.15;0.80;;;12.00;99.90;;;;;;5053268;28;20168;-76
2024/02/14 00:25:30;;;;;;;1.27;0.53;;;12.00;99.90;;;;;;5070965;28;20583;-76
2024/02/14 00:27:56;;;;;;;1.80;0.60;;;12.00;99.90;;;;;;5052525;28;20590;-76
2024/02/14 00:30:23;;;;;;;1.97;0.60;;;12.00;99.90;;;;;;5035284;28;20850;-76
2024/02/14 00:32:48;;;;;;;1.40;0.60;;;12.00;99.90;;;;;;5052485;28;20181;-76
2024/02/14 00:35:14;;;;;;;1.40;0.60;;;12.00;99.90;;;;;;5052389;28;20168;-76
2024/02/14 00:37:40;;;;;;;1.60;0.70;;;12.00;99.90;;;;;;5061648;28;21451;-76
2024/02/14 00:40:06;;;;;;;2.20;0.83;;;12.00;99.90;;;;;;5054224;28;20962;-76
2024/02/14 00:42:32;;;;;;;1.83;0.70;;;11.90;99.90;;;;;;5055642;28;20590;-76
2024/02/14 00:44:58;;;;;;;2.07;0.70;;;11.90;99.90;;;;;;5073975;28;20176;-74
2024/02/14 00:47:23;;;;;;;2.00;1.00;;;11.90;99.90;;;;;;5076122;28;20184;-75
2024/02/14 00:49:49;;;;;;;1.70;1.00;;;11.90;99.90;;;;;;5073977;28;20575;-75
2024/02/14 00:52:16;;;;;;;1.70;0.50;;;11.90;99.90;;;;;;5055583;28;20191;-75
2024/02/14 00:54:42;;;;;;;4.53;0.70;;;11.90;99.90;;;;;;5039254;28;20180;-75
2024/02/14 00:57:08;;;;;;;2.70;0.70;;;11.90;99.90;;;;;;5073718;28;20551;-76
2024/02/14 00:59:33;;;;;;;1.63;1.10;;;11.90;99.90;;;;;;5073248;28;20184;-75
2024/02/14 01:01:59;;;;;;;1.40;0.60;;;11.90;99.90;;;;;;5055221;28;20327;-75
2024/02/14 01:04:25;;;;;;;1.30;0.50;;;11.90;99.90;;;;;;5039078;28;20204;-75
2024/02/14 01:06:51;;;;;;;2.30;0.70;;;11.90;99.90;;;;;;5055524;28;20180;-76
2024/02/14 01:09:18;;;;;;;1.50;0.60;;;11.90;99.90;;;;;;5038803;28;20192;-75
2024/02/14 01:11:44;;;;;;;2.22;0.60;;;11.90;99.90;;;;;;5044283;28;20196;-75
2024/02/14 01:14:12;;;;;;;2.50;0.70;;;12.00;99.90;;;;;;5035311;28;20187;-75
2024/02/14 01:16:45;;;;;;;1.75;0.60;;;12.00;99.90;;;;;;5035459;28;20288;-75
2024/02/14 01:19:11;;;;;;;1.30;0.60;;;12.00;99.90;;;;;;5053402;28;20169;-75
2024/02/14 01:21:37;;;;;;;1.90;0.70;;;12.00;99.90;;;;;;5058898;22;20631;-73
2024/02/14 01:24:05;;;;;;;1.70;0.65;;;12.00;99.90;;;;;;5032163;28;20639;-73
2024/02/14 01:26:32;;;;;;;3.60;0.70;;;12.00;99.90;;;;;;5019036;28;20169;-74
2024/02/14 01:29:00;;;;;;;1.92;0.60;;;12.00;99.90;;;;;;5042220;28;20172;-74
2024/02/14 01:31:26;;;;;;;1.20;0.50;;;12.00;99.90;;;;;;5050627;28;20173;-74
2024/02/14 01:33:53;;;;;;;1.20;0.50;;;12.00;99.90;;;;;;5054802;28;20345;-74
2024/02/14 01:36:19;;;;;;;2.20;0.65;;;12.00;99.90;;;;;;5054802;28;20219;-74
2024/02/14 01:38:45;;;;;;;4.33;0.53;;;12.00;99.90;;;;;;5072228;28;20172;-73
2024/02/14 01:41:10;;;;;;;1.93;0.60;;;12.10;99.90;;;;;;5070064;28;20253;-74
2024/02/14 01:43:37;;;;;;;1.70;0.60;;;12.00;99.90;;;;;;5051810;28;21198;-73
2024/02/14 01:46:06;;;;;;;2.40;0.60;;;12.00;99.90;;;;;;5038013;28;20173;-74
2024/02/14 01:48:33;;;;;;;1.33;0.60;;;12.00;99.90;;;;;;5054720;28;20172;-74
2024/02/14 01:51:01;;;;;;;3.78;1.10;;;12.10;99.90;;;;;;5071315;28;20527;-73
2024/02/14 01:53:29;;;;;;;1.55;0.60;;;12.00;99.90;;;;;;5054698;28;20208;-73
2024/02/14 01:55:57;;;;;;;1.48;0.70;;;12.10;99.90;;;;;;5047959;28;20610;-74
2024/02/14 01:58:23;;;;;;;2.58;0.60;;;12.10;99.90;;;;;;5051706;28;20225;-73
2024/02/14 02:00:49;;;;;;;2.27;0.83;;;12.10;99.90;;;;;;5071664;28;20582;-74
2024/02/14 02:03:16;;;;;;;1.40;0.70;;;12.10;99.90;;;;;;5054381;28;20668;-73
2024/02/14 02:05:42;;;;;;;1.60;0.60;;;12.10;99.90;;;;;;5052453;28;20594;-73
2024/02/14 02:08:09;;;;;;;1.70;0.60;;;12.10;99.90;;;;;;5047716;28;20177;-74
2024/02/14 02:10:35;;;;;;;2.22;0.60;;;12.10;99.90;;;;;;5071618;28;20236;-74
2024/02/14 02:13:01;;;;;;;1.35;0.60;;;12.10;99.90;;;;;;5072165;28;20192;-73
2024/02/14 02:15:28;;;;;;;1.93;0.73;;;12.10;99.90;;;;;;5054210;28;20642;-73
2024/02/14 02:17:54;;;;;;;1.60;0.60;;;12.10;99.90;;;;;;5042537;28;20189;-73
2024/02/14 02:20:20;;;;;;;1.30;0.50;;;12.10;99.90;;;;;;5049039;28;20332;-73
2024/02/14 02:22:50;;;;;;;3.00;0.53;;;12.10;99.90;;;;;;5071860;28;20303;-74
2024/02/14 02:25:16;;;;;;;2.08;0.70;;;12.10;99.90;;;;;;5071807;28;21270;-73
2024/02/14 02:27:42;;;;;;;1.40;0.50;;;12.20;99.90;;;;;;5071465;28;20172;-73
2024/02/14 02:30:13;;;;;;;1.60;0.77;;;12.10;99.90;;;;;;5071954;28;20168;-74
2024/02/14 02:32:39;;;;;;;2.33;0.60;;;12.10;99.90;;;;;;5071707;28;20271;-75
2024/02/14 02:35:05;;;;;;;1.30;0.50;;;12.10;99.90;;;;;;5072032;28;20226;-74
2024/02/14 02:37:31;;;;;;;1.45;0.60;;;12.10;99.90;;;;;;5054024;28;20294;-74
2024/02/14 02:39:57;;;;;;;1.77;0.60;;;12.10;99.90;;;;;;5037535;28;20189;-74
2024/02/14 02:42:23;;;;;;;1.20;0.50;;;12.10;99.90;;;;;;5062945;28;20196;-74
2024/02/14 02:44:50;;;;;;;1.57;0.70;;;12.10;99.90;;;;;;5053723;28;20579;-74
2024/02/14 02:47:18;;;;;;;1.92;0.60;;;12.10;99.90;;;;;;5053519;28;20195;-75
2024/02/14 02:49:44;;;;;;;1.20;0.50;;;12.10;99.90;;;;;;5053203;28;20172;-74
2024/02/14 02:52:11;;;;;;;1.20;0.60;;;12.10;99.90;;;;;;5039185;28;20681;-74
2024/02/14 02:54:40;;;;;;;1.50;0.55;;;12.20;99.90;;;;;;5059107;28;20191;-74
2024/02/14 02:57:07;;;;;;;1.60;0.60;;;12.20;99.90;;;;;;5053004;28;20211;-74
2024/02/14 02:59:35;;;;;;;1.40;0.65;;;12.20;99.90;;;;;;5053067;28;20179;-74
2024/02/14 03:02:02;;;;;;;1.30;0.60;;;12.20;99.90;;;;;;5031310;28;20257;-74
2024/02/14 03:04:28;;;;;;;1.77;0.63;;;12.20;99.90;;;;;;5032625;28;20707;-74
2024/02/14 03:06:54;;;;;;;1.70;0.60;;;12.20;99.90;;;;;;5053040;28;20191;-74
2024/02/14 03:09:20;;;;;;;4.70;0.60;;;12.30;99.90;;;;;;5052959;28;20177;-74
2024/02/14 03:11:48;;;;;;;1.20;0.50;;;12.30;99.90;;;;;;5033137;28;20187;-74
2024/02/14 03:14:14;;;;;;;1.50;0.60;;;12.30;99.90;;;;;;5036425;28;20168;-74
2024/02/14 03:16:40;;;;;;;1.80;0.70;;;12.30;99.90;;;;;;5070822;28;20200;-74
2024/02/14 03:19:06;;;;;;;2.30;0.57;;;12.30;99.90;;;;;;5052897;28;20183;-74
2024/02/14 03:21:32;;;;;;;1.67;0.77;;;12.30;99.90;;;;;;5035463;28;20586;-74
2024/02/14 03:23:58;;;;;;;2.47;0.70;;;12.30;99.90;;;;;;5070531;28;20618;-74
2024/02/14 03:26:24;;;;;;;3.45;0.70;;;12.30;99.90;;;;;;5029632;28;20180;-73
2024/02/14 03:28:50;;;;;;;2.33;0.60;;;12.30;99.90;;;;;;5051572;28;20234;-74
2024/02/14 03:31:34;;;;;;;1.50;0.83;;;12.30;99.90;;;;;;5026816;28;20176;-74
2024/02/14 03:34:00;;;;;;;1.50;0.70;;;12.30;99.90;;;;;;5028066;28;20176;-74
2024/02/14 03:36:30;;;;;;;2.17;0.68;;;12.30;99.90;;;;;;5052402;28;20713;-76
2024/02/14 03:38:56;;;;;;;1.50;0.60;;;12.30;99.90;;;;;;5062216;28;20303;-74
2024/02/14 03:41:22;;;;;;;1.33;0.60;;;12.40;99.90;;;;;;5069968;28;20173;-74
2024/02/14 03:43:49;;;;;;;1.87;0.60;;;12.30;99.90;;;;;;5050622;28;20200;-74
2024/02/14 03:46:15;;;;;;;1.53;0.60;;;12.40;99.90;;;;;;5046017;28;20176;-74
2024/02/14 03:48:43;;;;;;;1.55;0.70;;;12.40;99.90;;;;;;5069369;28;20933;-74
2024/02/14 03:51:09;;;;;;;2.03;0.70;;;12.40;99.90;;;;;;5068616;28;20180;-74
2024/02/14 03:53:35;;;;;;;1.30;0.50;;;12.40;99.90;;;;;;5052590;28;20669;-74
2024/02/14 03:56:00;;;;;;;1.27;0.53;;;12.40;99.90;;;;;;5070236;28;20203;-74
2024/02/14 03:58:26;;;;;;;1.80;0.70;;;12.40;99.90;;;;;;5035815;28;20187;-74
2024/02/14 04:00:52;;;;;;;1.23;0.60;;;12.40;99.90;;;;;;5049640;28;20176;-74
2024/02/14 04:03:18;;;;;;;1.80;0.70;;;12.40;99.90;;;;;;5068986;28;20606;-74
2024/02/14 04:05:47;;;;;;;1.70;0.60;;;12.40;99.90;;;;;;5034959;28;20708;-74
2024/02/14 04:08:13;;;;;;;2.17;0.50;;;12.50;99.90;;;;;;5063216;28;20579;-74
2024/02/14 04:10:39;;;;;;;1.40;0.57;;;12.50;99.90;;;;;;5043128;28;20563;-74
2024/02/14 04:13:05;;;;;;;2.60;0.50;;;12.50;99.90;;;;;;5066503;28;20601;-74
2024/02/14 04:15:32;;;;;;;1.67;0.70;;;12.50;99.90;;;;;;5036636;28;20167;-74
2024/02/14 04:17:59;;;;;;;1.88;0.77;;;12.50;99.90;;;;;;5055967;28;20207;-74
2024/02/14 04:20:25;;;;;;;1.48;0.60;;;12.50;99.90;;;;;;5070886;28;20184;-74
2024/02/14 04:22:51;;;;;;;1.20;0.50;;;12.50;99.90;;;;;;5076434;28;20208;-74
2024/02/14 04:25:18;;;;;;;1.60;0.50;;;12.50;99.90;;;;;;5045419;28;20605;-74
2024/02/14 04:27:44;;;;;;;1.85;0.60;;;12.50;99.90;;;;;;5055754;28;20646;-74
2024/02/14 04:30:10;;;;;;;3.73;0.53;;;12.60;99.90;;;;;;5058375;28;20180;-74
2024/02/14 04:32:36;;;;;;;1.30;0.60;;;12.60;99.90;;;;;;5076819;28;20279;-74
2024/02/14 04:35:02;;;;;;;2.07;0.57;;;12.60;99.90;;;;;;5041859;28;20258;-74
2024/02/14 04:37:28;;;;;;;1.30;0.50;;;12.50;99.90;;;;;;5050364;28;20207;-74
2024/02/14 04:39:53;;;;;;;1.90;0.70;;;12.50;99.90;;;;;;5076004;28;20622;-74
2024/02/14 04:42:19;;;;;;;1.30;0.60;;;12.50;99.90;;;;;;5050362;28;20533;-74
2024/02/14 04:44:45;;;;;;;1.50;0.60;;;12.50;99.90;;;;;;5076723;28;20575;-74
2024/02/14 04:47:11;;;;;;;1.50;0.57;;;12.50;99.90;;;;;;5058816;28;20210;-74
2024/02/14 04:49:37;;;;;;;1.30;0.60;;;12.50;99.90;;;;;;5050253;28;20575;-74
2024/02/14 04:52:04;;;;;;;1.30;0.60;;;12.50;99.90;;;;;;5075967;28;20207;-74
2024/02/14 04:54:29;;;;;;;1.50;0.60;;;12.50;99.90;;;;;;5076777;28;21062;-75
2024/02/14 04:56:55;;;;;;;2.00;0.60;;;12.50;99.90;;;;;;5041858;28;20242;-74
2024/02/14 04:59:21;;;;;;;1.40;0.50;;;12.50;99.90;;;;;;5071093;28;20207;-74
2024/02/14 05:01:47;;;;;;;1.73;0.70;;;12.50;99.90;;;;;;5074631;28;20187;-74
2024/02/14 05:04:12;;;;;;;1.20;0.50;;;12.50;99.90;;;;;;5076428;28;20933;-74
2024/02/14 05:06:39;;;;;;;1.97;0.50;;;12.60;99.90;;;;;;5041827;28;20637;-74
2024/02/14 05:09:05;;;;;;;1.20;0.52;;;12.50;99.90;;;;;;5058213;28;20204;-74
2024/02/14 05:11:31;;;;;;;1.77;0.60;;;12.50;99.90;;;;;;5057945;28;20184;-74
2024/02/14 05:13:56;;;;;;;1.33;0.60;;;12.50;99.90;;;;;;5058842;28;20551;-74
2024/02/14 05:16:23;;;;;;;1.30;0.50;;;12.50;99.90;;;;;;5076353;28;20243;-74
2024/02/14 05:18:49;;;;;;;1.45;0.60;;;12.40;99.90;;;;;;5041368;28;20262;-74
2024/02/14 05:21:15;;;;;;;2.00;0.60;;;12.40;99.90;;;;;;5058009;28;20245;-73
2024/02/14 05:23:40;;;;;;;1.30;0.60;;;12.40;99.90;;;;;;5067967;28;20640;-74
2024/02/14 05:26:06;;;;;;;1.27;0.57;;;12.40;99.90;;;;;;5056595;28;20251;-74
2024/02/14 05:28:32;;;;;;;1.40;0.60;;;12.50;99.90;;;;;;5073101;28;20595;-74
2024/02/14 05:31:00;;;;;;;1.30;0.50;;;12.50;99.90;;;;;;5059968;28;20641;-74
2024/02/14 05:33:26;;;;;;;2.90;0.67;;;12.50;99.90;;;;;;5068411;28;20750;-74
2024/02/14 05:35:52;;;;;;;1.30;0.50;;;12.50;99.90;;;;;;5067558;28;20594;-74
2024/02/14 05:38:19;;;;;;;2.47;0.80;;;12.50;99.90;;;;;;5043500;28;20173;-74
2024/02/14 05:40:48;;;;;;;1.67;0.70;;;12.60;99.90;;;;;;5062702;28;20695;-74
2024/02/14 05:43:15;;;;;;;1.83;0.60;;;12.60;99.90;;;;;;5054304;28;20215;-74
2024/02/14 05:45:41;;;;;;;1.83;0.70;;;12.60;99.90;;;;;;5065400;28;20521;-74
2024/02/14 05:48:07;;;;;;;1.40;0.60;;;12.60;99.90;;;;;;5053636;28;20271;-74
2024/02/14 05:50:33;;;;;;;1.75;0.60;;;12.60;99.90;;;;;;5073113;28;20677;-74
2024/02/14 05:53:00;;;;;;;1.30;0.60;;;12.60;99.90;;;;;;5072534;28;20200;-74
2024/02/14 05:55:26;;;;;;;2.10;0.70;;;12.60;99.90;;;;;;5071039;28;20200;-74
2024/02/14 05:57:55;;;;;;;1.87;0.50;;;12.60;99.90;;;;;;5054434;28;20669;-74
2024/02/14 06:00:21;;;;;;;1.70;0.60;;;12.50;99.90;;;;;;5053948;28;21364;-75
2024/02/14 06:02:48;;;;;;;1.30;0.50;;;12.60;99.90;;;;;;5046324;28;20685;-74
2024/02/14 06:05:14;;;;;;;1.50;0.50;;;12.50;99.90;;;;;;5046452;28;20579;-74
2024/02/14 06:07:40;;;;;;;1.38;0.60;;;12.50;99.90;;;;;;5054236;28;20172;-75
2024/02/14 06:10:09;;;;;;;1.50;0.70;;;12.50;99.90;;;;;;5063597;28;20247;-74
2024/02/14 06:12:35;;;;;;;1.33;0.65;;;12.50;99.90;;;;;;5072271;28;20200;-74
2024/02/14 06:15:01;;;;;;;1.57;0.60;;;12.50;99.90;;;;;;5054157;28;20695;-75
2024/02/14 06:17:27;;;;;;;1.20;0.50;;;12.40;99.90;;;;;;5071838;28;20196;-75
2024/02/14 06:19:54;;;;;;;1.40;0.67;;;12.40;99.90;;;;;;5062331;28;20185;-75
2024/02/14 06:22:20;;;;;;;1.50;0.68;;;12.30;99.90;;;;;;5064712;28;20204;-75
2024/02/14 06:24:48;;;;;;;2.00;0.70;;;12.30;99.90;;;;;;5068868;28;20184;-74
2024/02/14 06:27:14;;;;;;;2.03;0.70;;;12.30;99.90;;;;;;5071894;28;20180;-74
2024/02/14 06:29:43;;;;;;;1.93;0.90;;;12.30;99.90;;;;;;5071938;28;20229;-74
2024/02/14 06:32:10;;;;;;;2.30;0.70;;;12.30;99.90;;;;;;5042171;28;20615;-75
2024/02/14 06:34:36;;;;;;;1.63;0.70;;;12.30;99.90;;;;;;5067026;28;20192;-74
2024/02/14 06:37:01;;;;;;;1.30;0.70;;;12.30;99.90;;;;;;5031814;28;20220;-74
2024/02/14 06:39:27;;;;;;;1.80;0.60;;;12.30;99.90;;;;;;5050136;28;20229;-75
2024/02/14 06:41:53;;;;;;;1.23;0.70;;;12.30;99.90;;;;;;5042855;28;20177;-74
2024/02/14 06:44:19;;;;;;;1.40;0.60;;;12.30;99.90;;;;;;5048427;28;20258;-74
2024/02/14 06:46:44;;;;;;;1.97;0.70;;;12.30;99.90;;;;;;5071540;28;20241;-74
2024/02/14 06:49:10;;;;;;;1.43;0.70;;;12.30;99.90;;;;;;5053040;28;20176;-75
2024/02/14 06:51:36;;;;;;;1.90;0.70;;;12.40;99.90;;;;;;5042220;28;20183;-74
2024/02/14 06:54:02;;;;;;;2.27;0.60;;;12.40;99.90;;;;;;5041541;28;20184;-74
2024/02/14 06:56:30;;;;;;;1.23;0.52;;;12.40;99.90;;;;;;5047515;28;20199;-74
2024/02/14 06:58:59;;;;;;;1.55;0.68;;;12.50;99.90;;;;;;5058794;28;20203;-74
2024/02/14 07:01:26;;;;;;;3.20;1.20;;;12.50;99.90;;;;;;5062266;28;20184;-74
2024/02/14 07:03:53;;;;;;;2.25;0.88;;;12.50;99.90;;;;;;5062345;28;20714;-74
2024/02/14 07:06:19;;;;;;;2.37;0.70;;;12.50;99.90;;;;;;5053214;28;20607;-74
2024/02/14 07:08:44;;;;;;;1.50;0.67;;;12.50;99.90;;;;;;5070808;28;20666;-74
2024/02/14 07:11:11;;;;;;;3.37;0.80;;;12.60;99.90;;;;;;5070327;28;20998;-74
2024/02/14 07:13:37;;;;;;;1.90;0.80;;;12.60;99.90;;;;;;5036197;28;20615;-74
2024/02/14 07:16:03;;;;;;;1.50;0.70;;;12.60;99.90;;;;;;5051747;28;20615;-74
2024/02/14 07:18:28;;;;;;;1.60;0.60;;;12.60;99.90;;;;;;5061119;28;20685;-76
2024/02/14 07:20:54;;;;;;;1.70;0.60;;;12.70;99.90;;;;;;5051527;28;21340;-75
2024/02/14 07:23:20;;;;;;;1.67;0.77;;;12.70;99.90;;;;;;5048819;28;20215;-75
2024/02/14 07:25:46;;;;;;;3.30;0.70;;;12.80;99.90;;;;;;5075262;28;20187;-75
2024/02/14 07:28:12;;;;;;;2.37;0.90;;;12.80;99.90;;;;;;5060273;28;20637;-74
2024/02/14 07:30:38;;;;;;;2.50;0.67;;;12.80;99.90;;;;;;5057029;28;21154;-74
2024/02/14 07:33:04;;;;;;;2.53;0.87;;;12.80;99.90;;;;;;5070079;28;20709;-74
2024/02/14 07:35:29;;;;;;;1.87;0.80;;;12.80;99.90;;;;;;5061772;28;20202;-74
2024/02/14 07:37:56;;;;;;;2.13;0.93;;;12.80;99.90;;;;;;5066954;28;21250;-74
2024/02/14 07:40:22;;;;;;;2.50;0.98;;;12.90;99.90;;;;;;5057902;28;20267;-75
2024/02/14 07:42:48;;;;;;;2.63;0.73;;;12.90;99.90;;;;;;5051259;28;20270;-74
2024/02/14 07:45:15;;;;;;;1.58;0.80;;;12.90;99.90;;;;;;5052254;28;20581;-75
2024/02/14 07:47:41;;;;;;;2.27;0.80;;;12.90;99.90;;;;;;5062306;28;20400;-74
2024/02/14 07:50:07;;;;;;;2.30;0.70;;;13.00;99.90;;;;;;5065712;28;20586;-74
2024/02/14 07:52:33;;;;;;;2.37;0.90;;;13.00;99.90;;;;;;5070255;28;20618;-74
2024/02/14 07:54:59;;;;;;;2.30;0.83;;;13.00;99.90;;;;;;5062744;28;20591;-74
2024/02/14 07:57:25;;;;;;;4.50;1.00;;;13.10;99.90;;;;;;5048481;28;20627;-74
2024/02/14 07:59:51;;;;;;;2.77;0.77;;;13.10;99.90;;;;;;5065935;28;20172;-74
2024/02/14 08:02:20;;;;;;;2.23;0.80;;;13.20;99.90;;;;;;5053239;28;20606;-74
2024/02/14 08:04:46;;;;;;;2.03;0.80;;;13.20;99.90;;;;;;5061771;28;20582;-74
2024/02/14 08:07:11;;;;;;;2.10;0.90;;;13.30;99.90;;;;;;5069714;28;20636;-75
2024/02/14 08:09:39;;;;;;;1.90;0.80;;;13.30;99.90;;;;;;5069908;28;21126;-75
2024/02/14 08:12:05;;;;;;;1.80;0.97;;;13.40;99.90;;;;;;5051186;28;20211;-75
2024/02/14 08:14:31;;;;;;;1.90;0.80;;;13.40;99.90;;;;;;5051736;28;20594;-75
2024/02/14 08:16:57;;;;;;;2.63;0.80;;;13.50;99.90;;;;;;5043251;28;20630;-75
2024/02/14 08:19:23;;;;;;;2.13;1.17;;;13.50;99.90;;;;;;5051473;28;20683;-74
2024/02/14 08:21:48;;;;;;;1.90;0.80;;;13.60;99.90;;;;;;5050930;28;20645;-74
2024/02/14 08:24:14;;;;;;;2.23;0.90;;;13.60;99.90;;;;;;5051893;28;20709;-74
2024/02/14 08:26:40;;;;;;;1.80;0.60;;;13.70;99.90;;;;;;5062961;28;20903;-74
2024/02/14 08:29:05;;;;;;;1.80;0.70;;;13.80;99.90;;;;;;5041373;28;20199;-74
2024/02/14 08:31:32;;;;;;;1.60;0.60;;;13.80;99.90;;;;;;5051161;28;20540;-74
2024/02/14 08:33:58;;;;;;;1.50;0.60;;;13.90;99.90;;;;;;5069682;28;20591;-74
2024/02/14 08:36:24;;;;;;;2.57;0.70;;;14.00;99.90;;;;;;5035084;28;20629;-74
2024/02/14 08:38:50;;;;;;;1.20;0.50;;;14.10;99.90;;;;;;5027057;28;20689;-74
2024/02/14 08:41:18;;;;;;;3.37;0.60;;;14.20;99.90;;;;;;5059985;28;20626;-74
2024/02/14 08:43:44;;;;;;;1.40;0.60;;;14.30;99.90;;;;;;5070463;28;20203;-74
2024/02/14 08:46:12;;;;;;;1.30;0.53;;;14.40;99.90;;;;;;5069468;28;20579;-74
2024/02/14 08:48:45;;;;;;;1.30;0.60;;;14.50;99.90;;;;;;5068957;28;20179;-73
2024/02/14 08:51:12;;;;;;;1.57;0.67;;;14.60;99.90;;;;;;5052446;28;20587;-74
2024/02/14 08:53:38;;;;;;;3.30;0.60;;;14.60;99.90;;;;;;5067219;28;20974;-74
2024/02/14 08:56:04;;;;;;;1.40;0.50;;;14.70;99.90;;;;;;5069356;28;20618;-74
2024/02/14 08:58:30;;;;;;;2.57;0.70;;;14.70;99.90;;;;;;5069173;28;20177;-74
2024/02/14 09:00:55;;;;;;;1.60;0.60;;;14.80;99.90;;;;;;5070451;28;21163;-73
2024/02/14 09:03:21;;;;;;;3.57;0.77;;;14.90;99.90;;;;;;5039200;28;20295;-74
2024/02/14 09:05:49;;;;;;;2.23;0.70;;;14.90;99.90;;;;;;5073426;28;20196;-74
2024/02/14 09:08:14;;;;;;;2.00;0.63;;;15.00;99.90;;;;;;5051621;28;20180;-74
2024/02/14 09:10:40;;;;;;;2.70;1.10;;;15.10;99.90;;;;;;5048757;28;20597;-74
2024/02/14 09:13:07;;;;;;;1.80;0.60;;;15.20;99.90;;;;;;5067958;28;20192;-74
2024/02/14 09:15:33;;;;;;;2.27;0.70;;;15.30;99.90;;;;;;5055108;28;20199;-73
2024/02/14 09:18:00;;;;;;;1.63;0.70;;;15.40;99.90;;;;;;5072631;28;20629;-73
2024/02/14 09:20:26;;;;;;;1.30;0.60;;;15.60;99.90;;;;;;5064075;28;20631;-74
2024/02/14 09:22:53;;;;;;;2.13;0.70;;;15.70;99.90;;;;;;5054843;28;21094;-74
2024/02/14 09:25:19;;;;;;;2.40;1.13;;;15.80;99.90;;;;;;5072671;28;20238;-74
2024/02/14 09:27:47;;;;;;;1.57;0.70;;;16.00;99.90;;;;;;5048950;28;20591;-74
2024/02/14 09:30:13;;;;;;;3.03;0.80;;;16.30;99.90;;;;;;5052849;28;20227;-74
2024/02/14 09:32:39;;;;;;;1.67;0.80;;;16.50;99.90;;;;;;5054877;28;20713;-74
2024/02/14 09:35:06;;;;;;;1.40;0.60;;;16.80;99.90;;;;;;5054977;28;20732;-74
2024/02/14 09:37:32;;;;;;;1.40;0.60;;;17.00;99.90;;;;;;5064153;28;20276;-74
2024/02/14 09:39:58;;;;;;;2.50;0.63;;;17.20;99.90;;;;;;5053847;28;21198;-74
2024/02/14 09:42:43;;;;;;;2.43;1.00;;;17.40;99.90;;;;;;5072848;28;20747;-73
2024/02/14 09:45:09;;;;;;;2.43;0.60;;;17.50;99.90;;;;;;5050108;28;21219;-74
2024/02/14 09:47:36;;;;;;;2.63;0.70;;;17.60;99.90;;;;;;5072233;28;20716;-74
2024/02/14 09:50:03;;;;;;;2.60;0.60;;;17.70;99.90;;;;;;5063335;28;20187;-74
2024/02/14 09:52:33;;;;;;;1.60;0.60;;;17.80;99.90;;;;;;5054214;28;20709;-74
2024/02/14 09:54:59;;;;;;;1.40;0.60;;;17.90;99.90;;;;;;5072236;28;20610;-73
2024/02/14 09:57:26;;;;;;;1.67;0.57;;;17.90;99.90;;;;;;5055971;28;20633;-74
2024/02/14 09:59:53;;;;;;;1.50;0.50;;;18.00;99.90;;;;;;5029912;28;20579;-73
2024/02/14 10:02:19;;;;;;;2.47;0.70;;;17.90;99.90;;;;;;5037298;28;20621;-73
2024/02/14 10:04:45;;;;;;;1.77;0.60;;;17.80;99.90;;;;;;5054471;28;20583;-74
2024/02/14 10:07:11;;;;;;;2.37;0.53;;;17.70;99.90;;;;;;5053396;28;20590;-74
2024/02/14 10:09:41;;;;;;;2.67;0.60;;;17.60;99.90;;;;;;5053847;28;20172;-74
2024/02/14 10:12:08;;;;;;;1.60;0.70;;;17.50;99.90;;;;;;5070591;28;20206;-74
2024/02/14 10:14:36;;;;;;;1.70;0.60;;;17.40;99.90;;;;;;5054292;28;20618;-74
2024/02/14 10:17:03;;;;;;;2.77;0.70;;;17.40;99.90;;;;;;5052672;28;20649;-74
2024/02/14 10:19:29;;;;;;;4.03;0.63;;;17.30;99.90;;;;;;5053618;28;20575;-73
2024/02/14 10:21:58;;;;;;;3.10;0.77;;;17.20;99.90;;;;;;5053097;28;21180;-74
2024/02/14 10:24:28;;;;;;;2.33;0.60;;;17.00;99.90;;;;;;5063784;28;20176;-74
2024/02/14 10:26:57;;;;;;;5.13;0.80;;;16.90;99.90;;;;;;5052564;28;20610;-73
2024/02/14 10:29:24;;;;;;;2.63;0.70;;;16.90;99.90;;;;;;5053463;28;20570;-73
2024/02/14 10:31:50;;;;;;;2.57;0.77;;;16.80;99.90;;;;;;5052825;28;20591;-73
2024/02/14 10:34:16;;;;;;;1.77;0.77;;;16.80;99.90;;;;;;5061084;28;20617;-74
2024/02/14 10:36:45;;;;;;;2.47;0.70;;;16.70;99.90;;;;;;5047282;28;20635;-74
2024/02/14 10:39:12;;;;;;;2.23;0.80;;;16.70;99.90;;;;;;5071301;28;20678;-73
2024/02/14 10:41:37;;;;;;;3.80;0.90;;;16.80;99.90;;;;;;5019735;28;20587;-74
2024/02/14 10:44:09;;;;;;;1.63;0.60;;;17.00;99.90;;;;;;5053824;28;20989;-73
2024/02/14 10:46:37;;;;;;;1.77;0.70;;;17.20;99.90;;;;;;5044993;28;20187;-74
2024/02/14 10:49:05;;;;;;;2.60;1.00;;;17.50;99.90;;;;;;5071078;28;20589;-73
2024/02/14 10:51:33;;;;;;;1.70;0.80;;;17.70;99.90;;;;;;5070602;28;21217;-73
2024/02/14 10:54:00;;;;;;;1.80;0.70;;;17.90;99.90;;;;;;5071364;28;20614;-73
2024/02/14 10:56:29;;;;;;;2.80;0.90;;;18.30;99.90;;;;;;5071091;28;20626;-74
2024/02/14 10:58:58;;;;;;;2.77;1.00;;;18.50;99.90;;;;;;5045042;28;20660;-74
2024/02/14 11:01:27;;;;;;;3.07;0.80;;;18.60;99.90;;;;;;5070644;28;21002;-74
2024/02/14 11:03:55;;;;;;;1.70;0.70;;;18.70;99.90;;;;;;5065601;28;20618;-73
2024/02/14 11:06:21;;;;;;;2.43;0.70;;;18.70;99.90;;;;;;5052625;28;20602;-74
2024/02/14 11:09:16;;;;;;;3.20;0.90;;;18.70;99.90;;;;;;5061857;28;21209;-74
2024/02/14 11:11:46;;;;;;;2.10;0.70;;;18.70;99.90;;;;;;5030301;28;20603;-73
2024/02/14 11:14:17;;;;;;;2.00;1.03;;;18.70;99.90;;;;;;5070756;28;20575;-73
2024/02/14 11:16:45;;;;;;;2.07;0.60;;;18.60;99.90;;;;;;5061490;28;20635;-74
2024/02/14 11:19:12;;;;;;;1.83;0.70;;;18.50;99.90;;;;;;5068175;28;20665;-73
2024/02/14 11:21:48;;;;;;;2.43;0.80;;;18.30;99.90;;;;;;5027336;28;20594;-73
2024/02/14 11:24:15;;;;;;;2.90;1.00;;;18.10;99.90;;;;;;5044232;28;20990;-73
2024/02/14 11:26:52;;;;;;;2.13;0.90;;;17.90;99.90;;;;;;5070005;28;20575;-73
2024/02/14 11:29:21;;;;;;;2.70;0.97;;;17.80;99.90;;;;;;5070402;28;20971;-73
2024/02/14 11:31:47;;;;;;;3.90;0.90;;;17.60;99.90;;;;;;5064037;28;20587;-74
2024/02/14 11:34:14;;;;;;;2.80;1.00;;;17.50;99.90;;;;;;5037857;28;20674;-74
2024/02/14 11:36:44;;;;;;;3.13;1.00;;;17.40;99.90;;;;;;5033541;28;20665;-73
2024/02/14 11:39:14;;;;;;;2.77;0.80;;;17.30;99.90;;;;;;5059915;28;20654;-74
2024/02/14 11:41:42;;;;;;;2.10;0.70;;;17.20;99.90;;;;;;5034882;28;20583;-74
2024/02/14 11:44:08;;;;;;;1.93;0.90;;;17.20;99.90;;;;;;5036239;28;20610;-73
2024/02/14 11:46:36;;;;;;;1.70;0.67;;;17.20;99.90;;;;;;5070113;28;20635;-73
2024/02/14 11:49:03;;;;;;;4.10;0.90;;;17.20;99.90;;;;;;5069904;28;20590;-74
2024/02/14 11:51:30;;;;;;;2.33;0.90;;;17.20;99.90;;;;;;5058277;28;20946;-74
2024/02/14 11:54:04;;;;;;;1.77;0.60;;;17.20;99.90;;;;;;5047651;28;20617;-74
2024/02/14 11:56:33;;;;;;;2.57;0.70;;;17.20;99.90;;;;;;5067882;28;20642;-74
2024/02/14 11:59:03;;;;;;;2.40;0.90;;;17.20;99.90;;;;;;5070491;28;20937;-74
2024/02/14 12:01:34;;;;;;;1.90;0.70;;;17.20;99.90;;;;;;5069400;28;20945;-74
2024/02/14 12:04:02;;;;;;;1.50;0.50;;;17.20;99.90;;;;;;5051942;28;20614;-74
2024/02/14 12:06:34;;;;;;;1.40;0.70;;;17.20;99.90;;;;;;5057119;28;20582;-73
2024/02/14 12:09:08;;;;;;;1.30;0.60;;;17.20;99.90;;;;;;5045467;28;20660;-74
2024/02/14 12:11:42;;;;;;;1.30;0.50;;;17.20;99.90;;;;;;5042464;28;20597;-74
2024/02/14 12:14:08;;;;;;;2.53;0.60;;;17.10;99.90;;;;;;5060829;28;20584;-74
2024/02/14 12:16:39;;;;;;;2.43;0.50;;;17.20;99.90;;;;;;5068588;28;20691;-73
2024/02/14 12:19:15;;;;;;;1.83;0.60;;;17.10;99.90;;;;;;5043826;28;21223;-74
2024/02/14 12:21:41;;;;;;;2.93;0.60;;;17.10;99.90;;;;;;5050934;28;20923;-74
2024/02/14 12:24:08;;;;;;;1.50;0.60;;;17.10;99.90;;;;;;5070116;28;20579;-74
2024/02/14 12:26:38;;;;;;;1.70;0.60;;;17.10;99.90;;;;;;5047868;28;20599;-74
2024/02/14 12:29:05;;;;;;;1.87;0.50;;;17.10;99.90;;;;;;5065927;28;20686;-74
2024/02/14 12:31:31;;;;;;;1.30;0.50;;;17.10;99.90;;;;;;5060721;28;20579;-74
2024/02/14 12:33:59;;;;;;;1.50;0.50;;;17.00;99.90;;;;;;5051691;28;21014;-74
2024/02/14 12:36:27;;;;;;;1.43;0.50;;;17.00;99.90;;;;;;5065623;28;20618;-74
2024/02/14 12:38:53;;;;;;;1.97;0.70;;;17.00;99.90;;;;;;5055619;28;20579;-73
2024/02/14 12:41:19;;;;;;;1.20;0.50;;;17.00;99.90;;;;;;5053966;28;20586;-74
2024/02/14 12:43:45;;;;;;;1.33;0.50;;;17.10;99.90;;;;;;5048829;28;20610;-74
2024/02/14 12:46:11;;;;;;;1.50;0.50;;;17.20;99.90;;;;;;5073623;28;20184;-74